Details From KLBB - LUBBOCK PRESTON SMITH INTL
To KODO - ODESSA SCHLEMEYER FLD
Flight Number -
Tags generated
Created
Modified
Stats Distance 108 nm / 201 km
Max Altitude 12,700 ft / 3,871 m
Waypoints 3
Social Downloads 2
Likes 0
Share VATSIM

Download

Looking for another format? Having issues loading an existing format? Contact us
Advertisement - Login to hide

Notes

Basic altitude profile: - Ascent Rate: 2500ft/min - Ascent Speed: 250kts - Cruise Altitude: 35000ft - Cruise Speed: 420kts - Descent Rate: 1500ft/min - Descent Speed: 250kts Options: - Use NATs: yes - Use PACOTS: yes - Use low airways: yes - Use high airways: yes

Route

KLBB WELCH KODO

ID Type Via Altitude Latitude Longitude Leg Dist Tot Dist Heading (true) Name
O KLBB APT - 0 ft / 0 m 33.66156˚ -101.82068˚ - 0 nm - LUBBOCK PRESTON SMITH INTL
WELCH FIX - 12,700 ft / 3,871 m 32.94944˚ -102.03857˚ 44 nm 44 nm 194° / 194° -
O KODO APT - 0 ft / 0 m 31.92038˚ -102.38660˚ 64 nm 108 nm 196° / 196° ODESSA SCHLEMEYER FLD

Altitude Profile

Advertisement - Login to hide

KLBB

Details ICAO KLBB (LBB)
Name LUBBOCK PRESTON SMITH INTL
Region United States
Timezone America/Chicago (UTC-6.0)
Stats Elevation 3,282 ft / 1,000 m (AMSL)
Location 33.661557° -101.820684°
Runways 3
Magnetic Variation 6.146° E

METAR

KLBB 111253Z 26006KT 10SM FEW200 BKN280 M04/M13 A3030 RMK AO2 SLP263 T10441128 $

Decode

TAF

TAF KLBB 111120Z 1112/1212 27007KT P6SM FEW250 FM112000 32011KT P6SM FEW250

Decode

Departure Runways

ID Width Length Bearing (true) Bearing (mag) Surface Threshold Offset Overrun Length
08 150 ft / 46 m 7,985 ft / 2,434 m 89.66° 83.51° Concrete 200 ft / 61 m 0 ft / 0 m
17L 75 ft / 23 m 2,899 ft / 884 m 179.65° 173.50° Asphalt 0 ft / 0 m 0 ft / 0 m
17R 150 ft / 46 m 11,530 ft / 3,514 m 179.67° 173.52° Concrete 0 ft / 0 m 0 ft / 0 m
26 150 ft / 46 m 7,985 ft / 2,434 m 269.67° 263.52° Concrete 0 ft / 0 m 0 ft / 0 m
35L 150 ft / 46 m 11,530 ft / 3,514 m 359.67° 353.52° Concrete 0 ft / 0 m 0 ft / 0 m
35R 75 ft / 23 m 2,899 ft / 884 m 359.65° 353.50° Asphalt 0 ft / 0 m 0 ft / 0 m

KODO

Details ICAO KODO
Name ODESSA SCHLEMEYER FLD
Region United States
Timezone America/Chicago (UTC-6.0)
Stats Elevation 3,004 ft / 916 m (AMSL)
Location 31.920376° -102.386598°
Runways 3
Magnetic Variation 6.339° E

METAR

KODO 111253Z AUTO 29005KT 10SM 03/M04 A3033 RMK AO2 SLP258 T00331039 $

Decode

TAF

Not found

Destination Runways

ID Width Length Bearing (true) Bearing (mag) Surface Threshold Offset Overrun Length
02 75 ft / 23 m 5,712 ft / 1,741 m 29.54° 23.20° Asphalt 0 ft / 0 m 0 ft / 0 m
11 60 ft / 18 m 3,417 ft / 1,041 m 119.77° 113.43° Asphalt 0 ft / 0 m 0 ft / 0 m
16 75 ft / 23 m 5,016 ft / 1,529 m 164.74° 158.40° Asphalt 0 ft / 0 m 0 ft / 0 m
20 75 ft / 23 m 5,712 ft / 1,741 m 209.55° 203.21° Asphalt 0 ft / 0 m 0 ft / 0 m
29 60 ft / 18 m 3,417 ft / 1,041 m 299.78° 293.44° Asphalt 0 ft / 0 m 2,500 ft / 762 m
34 75 ft / 23 m 5,016 ft / 1,529 m 344.75° 338.41° Asphalt 0 ft / 0 m 0 ft / 0 m